Portada
METAR-TAF:

METAR-TAF

Aeroports :

Locarno, Suïssa

latitud: 46-09-55N, longitud: 8-52-40E, altitud: 198 m

Observació

L'informe es va fer fa 14 minuts, a les 08:20 UTC
Vent calma
Temperatura 12°C
Humitat 58%
Pressió 1028 hPa
Visibilitat 10 km o més
sense núvols per sota de 1500 mi sense presència de cumulonimbus.

METAR: LSZL 060820Z 00000KT CAVOK 12/04 Q1028 RMK BLU

Hora: 10:34 (08:34 UTC)

Pronòstic

L'informe es va fer fa 3 hores i 9 minuts, a les 05:25 UTC
Pronòstic vàlid del 06 a les 06 UTC al 06 a les 15 UTC
Vent 3 kt amb direcció variable
Visibilitat 10 km o més
sense núvols per sota de 1500 mi sense presència de cumulonimbus.
Evolucionant progressivament
l' 06 a les 09 UTC al 06 a les 12 UTC
Vent 8 kt del Oest

TAF: LSZL 060525Z 0606/0615 VRB03KT CAVOK BECMG 0609/0612 27008KT

Observacions i pronòstics meteorològics de més de 4000 aeroports (METAR i TAF).

Les estacions disponibles són els punts grocs i vermells al mapa.

Posi el ratolí al punt desitjat per veure el nom de l'estació.

Feu clic per veure les observacions i els pronòstics meteorològics.

Per canviar el mapa: feu clic els botons verds amb una creu de color negre per apropar; al botó verd amb un guió per allunyar la imatge; o en les fletxes verdes per a mapes adjacents.


METAR-TAF: